createdAt,value
2018-07-26T00:00:07.748Z,3.07
2018-07-26T00:02:50.760Z,3.17
2018-07-26T00:05:33.554Z,3.30
2018-07-26T00:08:16.371Z,3.20
2018-07-26T00:10:58.816Z,3.07
2018-07-26T00:13:41.529Z,3.27
2018-07-26T00:16:24.418Z,2.97
2018-07-26T00:19:07.361Z,2.83
2018-07-26T00:21:49.741Z,2.97
2018-07-26T00:24:32.317Z,3.80
2018-07-26T00:27:15.100Z,3.80
2018-07-26T00:29:57.705Z,2.77
2018-07-26T00:32:40.432Z,3.37
2018-07-26T00:35:23.174Z,3.67
2018-07-26T00:38:05.892Z,3.70
2018-07-26T00:40:48.777Z,3.07
2018-07-26T00:43:31.081Z,3.20
2018-07-26T00:46:13.545Z,3.10
2018-07-26T00:48:56.877Z,3.43
2018-07-26T00:51:39.610Z,3.00
2018-07-26T00:54:22.316Z,2.90
2018-07-26T00:57:05.527Z,2.40
2018-07-26T00:59:47.937Z,3.57
2018-07-26T01:02:30.449Z,3.30
2018-07-26T01:05:13.309Z,2.90
2018-07-26T01:07:56.230Z,2.60
2018-07-26T01:10:38.305Z,2.80
2018-07-26T01:13:21.093Z,2.73
2018-07-26T01:16:03.728Z,2.63
2018-07-26T01:18:46.295Z,2.50
2018-07-26T01:21:29.097Z,2.80
2018-07-26T01:24:11.976Z,3.10
2018-07-26T01:26:54.651Z,3.13
2018-07-26T01:29:37.021Z,3.00
2018-07-26T01:32:20.032Z,3.27
2018-07-26T01:35:02.529Z,2.97
2018-07-26T01:37:45.014Z,2.97
2018-07-26T01:40:27.753Z,3.57
2018-07-26T01:43:49.122Z,3.33
2018-07-26T01:46:32.251Z,3.33
2018-07-26T01:49:15.184Z,3.50
2018-07-26T01:51:57.870Z,3.07
2018-07-26T01:54:40.639Z,4.07
2018-07-26T01:57:23.050Z,2.87
2018-07-26T02:00:06.097Z,3.40
2018-07-26T02:02:49.054Z,3.30
2018-07-26T02:05:31.810Z,3.30
2018-07-26T02:08:14.265Z,3.37
2018-07-26T02:10:56.829Z,3.50
2018-07-26T02:13:39.430Z,4.30
2018-07-26T02:16:22.479Z,3.50
2018-07-26T02:19:05.487Z,3.43
2018-07-26T02:21:48.249Z,3.57
2018-07-26T02:24:30.965Z,3.87
2018-07-26T02:27:14.934Z,4.00
2018-07-26T02:29:57.522Z,4.10
2018-07-26T02:32:40.398Z,3.70
2018-07-26T02:35:23.470Z,4.20
2018-07-26T02:38:06.311Z,3.77
2018-07-26T02:40:48.741Z,3.80
2018-07-26T02:43:31.593Z,4.13
2018-07-26T02:46:14.562Z,3.57
2018-07-26T02:48:57.508Z,3.67
2018-07-26T02:51:39.642Z,3.63
2018-07-26T02:54:22.642Z,3.80
2018-07-26T02:57:05.476Z,3.50
2018-07-26T02:59:48.527Z,3.63
2018-07-26T03:02:31.064Z,3.57
2018-07-26T03:05:13.543Z,4.00
2018-07-26T03:07:56.731Z,3.63
2018-07-26T03:10:39.459Z,3.67
2018-07-26T03:13:22.029Z,4.03
2018-07-26T03:16:04.851Z,3.80
2018-07-26T03:18:47.622Z,3.53
2018-07-26T03:21:31.009Z,4.23
2018-07-26T03:24:14.089Z,3.57
2018-07-26T03:26:56.784Z,4.50
2018-07-26T03:29:39.222Z,4.13
2018-07-26T03:32:21.634Z,4.03
2018-07-26T03:35:04.324Z,3.73
2018-07-26T03:37:47.827Z,4.53
2018-07-26T03:40:30.875Z,3.80
2018-07-26T03:43:13.755Z,3.40
2018-07-26T03:45:56.859Z,3.87
2018-07-26T03:48:39.409Z,3.60
2018-07-26T03:51:21.735Z,4.20
2018-07-26T03:54:04.651Z,3.10
2018-07-26T03:56:47.451Z,3.80
2018-07-26T03:59:30.427Z,2.87
2018-07-26T04:02:13.267Z,4.07
2018-07-26T04:04:55.585Z,3.67
2018-07-26T04:07:38.381Z,4.60
2018-07-26T04:10:20.924Z,3.80
2018-07-26T04:13:04.019Z,5.07
2018-07-26T04:15:46.836Z,4.40
2018-07-26T04:18:29.263Z,4.20
2018-07-26T04:21:12.150Z,4.70
2018-07-26T04:23:55.063Z,4.90
2018-07-26T04:26:38.331Z,3.97
2018-07-26T04:29:21.843Z,6.50
2018-07-26T04:32:04.476Z,5.13
2018-07-26T04:34:47.272Z,5.07
2018-07-26T04:37:29.945Z,5.77
2018-07-26T04:40:12.850Z,5.40
2018-07-26T04:42:55.342Z,5.10
2018-07-26T04:45:38.452Z,6.23
2018-07-26T04:48:21.252Z,4.97
2018-07-26T04:51:04.042Z,5.67
2018-07-26T04:53:46.951Z,5.63
2018-07-26T04:56:29.843Z,5.70
2018-07-26T04:59:12.375Z,5.60
2018-07-26T05:01:55.860Z,4.23
2018-07-26T05:04:39.400Z,6.40
2018-07-26T05:07:22.474Z,4.90
2018-07-26T05:10:05.428Z,5.10
2018-07-26T05:12:48.623Z,5.00
2018-07-26T05:15:31.707Z,5.03
2018-07-26T05:18:14.739Z,5.43
2018-07-26T05:20:57.575Z,6.40
2018-07-26T05:23:40.291Z,7.87
2018-07-26T05:26:23.009Z,7.27
2018-07-26T05:29:05.413Z,6.37
2018-07-26T05:31:48.156Z,5.40
2018-07-26T05:34:31.113Z,5.43
2018-07-26T05:37:13.963Z,6.50
2018-07-26T05:39:56.651Z,7.37
2018-07-26T05:42:39.455Z,17.03
2018-07-26T05:45:22.306Z,24.70
2018-07-26T05:48:04.677Z,16.13
2018-07-26T05:50:47.606Z,12.10
2018-07-26T05:53:30.472Z,12.30
2018-07-26T05:56:13.169Z,13.13
2018-07-26T05:58:56.471Z,13.87
2018-07-26T06:01:39.597Z,16.27
2018-07-26T06:04:22.527Z,12.63
2018-07-26T06:07:05.577Z,12.87
2018-07-26T06:09:48.430Z,12.17
2018-07-26T06:12:30.765Z,15.93
2018-07-26T06:15:13.858Z,13.87
2018-07-26T06:17:56.552Z,14.27
2018-07-26T06:20:39.510Z,14.27
2018-07-26T06:23:22.224Z,18.20
2018-07-26T06:26:05.369Z,15.27
2018-07-26T06:28:47.694Z,14.53
2018-07-26T06:31:30.358Z,10.87
2018-07-26T06:34:13.382Z,10.73
2018-07-26T06:36:56.309Z,7.20
2018-07-26T06:39:38.786Z,5.97
2018-07-26T06:42:21.418Z,5.10
2018-07-26T06:45:04.552Z,5.20
2018-07-26T06:47:47.391Z,5.60
2018-07-26T06:50:30.361Z,5.50
2018-07-26T06:53:13.017Z,5.23
2018-07-26T06:55:55.797Z,5.70
2018-07-26T06:58:38.740Z,5.77
2018-07-26T07:01:21.412Z,5.73
2018-07-26T07:04:05.853Z,5.67
2018-07-26T07:06:48.503Z,6.10
2018-07-26T07:09:31.168Z,5.63
2018-07-26T07:12:14.031Z,4.90
2018-07-26T07:14:57.055Z,5.10
2018-07-26T07:17:39.445Z,5.17
2018-07-26T07:20:22.195Z,5.55
2018-07-26T07:23:05.037Z,5.60
2018-07-26T07:25:48.412Z,4.87
2018-07-26T07:28:31.880Z,4.78
2018-07-26T07:31:14.581Z,4.67
2018-07-26T07:33:56.881Z,5.30
2018-07-26T07:36:39.554Z,5.00
2018-07-26T07:39:22.244Z,5.17
2018-07-26T07:42:04.787Z,4.83
2018-07-26T07:44:47.513Z,4.80
2018-07-26T07:47:30.192Z,4.22
2018-07-26T07:50:13.130Z,4.97
2018-07-26T07:52:55.993Z,4.00
2018-07-26T07:55:39.318Z,4.22
2018-07-26T07:58:22.452Z,4.65
2018-07-26T08:01:05.242Z,3.90
2018-07-26T08:03:48.203Z,3.98
2018-07-26T08:06:30.642Z,3.95
2018-07-26T08:09:13.526Z,4.25
2018-07-26T08:11:56.067Z,4.05
2018-07-26T08:14:38.953Z,4.90
2018-07-26T08:17:21.613Z,4.10
2018-07-26T08:20:04.573Z,4.72
2018-07-26T08:22:47.478Z,4.12
2018-07-26T08:25:30.953Z,4.70
2018-07-26T08:28:13.996Z,4.20
2018-07-26T08:30:56.910Z,4.78
2018-07-26T08:33:39.889Z,4.50
2018-07-26T08:36:22.682Z,4.47
2018-07-26T08:39:09.500Z,4.55
2018-07-26T08:41:52.825Z,4.15
2018-07-26T08:44:35.745Z,4.17
2018-07-26T08:47:18.579Z,4.53
2018-07-26T08:50:02.204Z,3.40
2018-07-26T08:52:45.186Z,3.40
2018-07-26T08:55:28.054Z,3.65
2018-07-26T08:58:10.699Z,5.45
2018-07-26T09:00:54.348Z,4.65
2018-07-26T09:03:37.134Z,3.42
2018-07-26T09:06:20.773Z,3.30
2018-07-26T09:09:04.363Z,3.47
2018-07-26T09:11:47.570Z,4.30
2018-07-26T09:14:30.478Z,3.50
2018-07-26T09:17:13.463Z,3.67
2018-07-26T09:19:56.394Z,3.92
2018-07-26T09:22:39.191Z,3.35
2018-07-26T09:25:22.728Z,3.65
2018-07-26T09:28:05.757Z,4.10
2018-07-26T09:30:48.801Z,3.70
2018-07-26T09:33:31.499Z,3.30
2018-07-26T09:36:14.397Z,3.52
2018-07-26T09:38:57.276Z,3.20
2018-07-26T09:41:40.255Z,3.30
2018-07-26T09:44:23.387Z,3.30
2018-07-26T09:47:05.724Z,3.30
2018-07-26T09:49:48.940Z,3.05
2018-07-26T09:52:31.602Z,3.52
2018-07-26T09:55:14.488Z,3.17
2018-07-26T09:57:57.039Z,3.47
2018-07-26T10:00:46.238Z,3.08
2018-07-26T10:03:28.828Z,3.10
2018-07-26T10:06:11.541Z,3.52
2018-07-26T10:08:54.273Z,7.33
2018-07-26T10:11:37.368Z,3.70
2018-07-26T10:14:20.051Z,3.45
2018-07-26T10:17:03.432Z,3.20
2018-07-26T10:19:46.128Z,3.30
2018-07-26T10:22:28.814Z,3.60
2018-07-26T10:25:11.742Z,3.25
2018-07-26T10:27:54.904Z,3.30
2018-07-26T10:30:37.072Z,2.87
2018-07-26T10:33:20.473Z,2.70
2018-07-26T10:36:03.055Z,2.70
2018-07-26T10:38:45.904Z,3.10
2018-07-26T10:41:28.632Z,3.02
2018-07-26T10:44:11.344Z,3.10
2018-07-26T10:46:54.158Z,2.67
2018-07-26T10:49:37.396Z,3.30
2018-07-26T10:52:19.760Z,2.72
2018-07-26T10:55:02.623Z,3.10
2018-07-26T10:57:45.316Z,3.62
2018-07-26T11:00:28.212Z,3.25
2018-07-26T11:03:12.544Z,3.30
2018-07-26T11:05:54.980Z,3.70
2018-07-26T11:08:37.743Z,3.80
2018-07-26T11:11:20.920Z,3.33
2018-07-26T11:14:03.793Z,3.00
2018-07-26T11:16:46.443Z,3.27
2018-07-26T11:19:29.432Z,3.42
2018-07-26T11:22:11.959Z,3.80
2018-07-26T11:24:55.622Z,3.50
2018-07-26T11:27:38.646Z,3.50
2018-07-26T11:30:21.559Z,3.42
2018-07-26T11:33:04.124Z,3.67
2018-07-26T11:35:46.836Z,3.58
2018-07-26T11:38:29.695Z,3.67
2018-07-26T11:41:12.505Z,3.77
2018-07-26T11:43:55.403Z,3.87
2018-07-26T11:46:38.592Z,3.10
2018-07-26T11:49:20.976Z,4.00
2018-07-26T11:52:03.887Z,4.00
2018-07-26T11:54:46.754Z,3.50
2018-07-26T11:57:29.488Z,3.70
2018-07-26T12:00:12.158Z,4.50
2018-07-26T12:02:55.551Z,3.95
2018-07-26T12:05:38.015Z,3.50
2018-07-26T12:08:20.951Z,3.50
2018-07-26T12:11:04.243Z,3.87
2018-07-26T12:13:46.690Z,4.20
2018-07-26T12:16:29.213Z,3.77
2018-07-26T12:19:12.626Z,3.83
2018-07-26T12:21:55.999Z,3.33
2018-07-26T12:24:38.744Z,4.05
2018-07-26T12:27:21.456Z,3.87
2018-07-26T12:30:04.131Z,3.90
2018-07-26T12:32:46.894Z,3.92
2018-07-26T12:35:29.506Z,3.65
2018-07-26T12:38:12.322Z,3.90
2018-07-26T12:40:55.301Z,3.70
2018-07-26T12:43:37.729Z,2.85
2018-07-26T12:46:20.561Z,3.17
2018-07-26T12:49:03.576Z,3.55
2018-07-26T12:51:46.606Z,3.92
2018-07-26T12:54:28.993Z,3.70
2018-07-26T12:57:11.764Z,4.20
2018-07-26T12:59:54.728Z,3.98
2018-07-26T13:02:37.753Z,3.75
2018-07-26T13:05:20.690Z,3.72
2018-07-26T13:08:03.209Z,3.62
2018-07-26T13:10:45.990Z,3.45
2018-07-26T13:13:29.661Z,3.45
2018-07-26T13:16:12.622Z,3.65
2018-07-26T13:18:55.562Z,3.95
2018-07-26T13:21:38.186Z,3.25
2018-07-26T13:24:20.967Z,3.80
2018-07-26T13:27:04.280Z,3.60
2018-07-26T13:29:46.694Z,3.60
2018-07-26T13:32:29.377Z,3.40
2018-07-26T13:35:12.969Z,4.05
2018-07-26T13:37:56.044Z,3.80
2018-07-26T13:40:38.832Z,3.67
2018-07-26T13:43:22.415Z,3.12
2018-07-26T13:46:05.773Z,4.37
2018-07-26T13:48:48.155Z,3.27
2018-07-26T13:51:30.907Z,3.87
2018-07-26T13:54:13.723Z,3.05
2018-07-26T13:56:56.344Z,3.17
2018-07-26T13:59:39.220Z,3.52
2018-07-26T14:02:21.895Z,3.22
2018-07-26T14:05:04.712Z,3.77
2018-07-26T14:07:47.422Z,3.95
2018-07-26T14:10:30.862Z,2.90
2018-07-26T14:13:13.395Z,3.60
2018-07-26T14:15:56.004Z,4.08
2018-07-26T14:18:38.698Z,3.30
2018-07-26T14:21:21.537Z,3.02
2018-07-26T14:24:08.744Z,4.08
2018-07-26T14:26:51.521Z,4.08
2018-07-26T14:29:34.645Z,4.70
2018-07-26T14:32:17.230Z,4.42
2018-07-26T14:34:59.775Z,3.02
2018-07-26T14:37:42.377Z,2.72
2018-07-26T14:40:25.870Z,3.02
2018-07-26T14:43:09.355Z,3.72
2018-07-26T14:45:52.200Z,3.33
2018-07-26T14:48:34.619Z,2.67
2018-07-26T14:51:18.264Z,2.80
2018-07-26T14:54:01.154Z,2.35
2018-07-26T14:56:43.844Z,2.22
2018-07-26T14:59:26.789Z,2.70
2018-07-26T15:02:09.688Z,2.58
2018-07-26T15:04:52.315Z,2.67
2018-07-26T15:07:35.209Z,3.05
2018-07-26T15:10:18.196Z,2.95
2018-07-26T15:13:00.916Z,2.62
2018-07-26T15:15:44.312Z,2.75
2018-07-26T15:18:27.455Z,2.60
2018-07-26T15:21:11.229Z,2.00
2018-07-26T15:23:54.256Z,2.27
2018-07-26T15:26:37.261Z,2.40
2018-07-26T15:29:19.713Z,2.17
2018-07-26T15:32:02.344Z,2.22
2018-07-26T15:34:45.408Z,2.60
2018-07-26T15:37:28.289Z,2.15
2018-07-26T15:40:11.249Z,2.30
2018-07-26T15:42:53.864Z,2.12
2018-07-26T15:45:36.695Z,2.55
2018-07-26T15:48:20.704Z,2.58
2018-07-26T15:51:03.180Z,2.42
2018-07-26T15:53:46.113Z,2.58
2018-07-26T15:56:29.094Z,2.10
2018-07-26T15:59:11.685Z,2.45
2018-07-26T16:01:54.255Z,2.72
2018-07-26T16:04:37.304Z,2.33
2018-07-26T16:07:19.856Z,2.25
2018-07-26T16:10:02.920Z,3.33
2018-07-26T16:12:45.531Z,2.60
2018-07-26T16:15:28.644Z,2.70
2018-07-26T16:18:11.401Z,2.72
2018-07-26T16:20:54.193Z,2.77
2018-07-26T16:23:37.107Z,2.80
2018-07-26T16:26:19.811Z,2.90
2018-07-26T16:29:03.091Z,2.33
2018-07-26T16:31:45.852Z,2.85
2018-07-26T16:34:28.608Z,2.90
2018-07-26T16:37:11.436Z,2.15
2018-07-26T16:39:54.034Z,3.10
2018-07-26T16:42:36.717Z,2.92
2018-07-26T16:45:19.772Z,2.65
2018-07-26T16:48:02.707Z,2.90
2018-07-26T16:50:44.986Z,2.22
2018-07-26T16:53:28.154Z,2.15
2018-07-26T16:56:10.844Z,2.60
2018-07-26T16:58:54.229Z,2.45
2018-07-26T17:01:37.124Z,2.65
2018-07-26T17:04:19.888Z,2.35
2018-07-26T17:07:02.845Z,2.55
2018-07-26T17:09:45.844Z,2.47
2018-07-26T17:12:28.927Z,2.15
2018-07-26T17:15:11.438Z,2.95
2018-07-26T17:17:54.111Z,3.15
2018-07-26T17:20:36.911Z,2.77
2018-07-26T17:23:19.338Z,2.58
2018-07-26T17:26:02.193Z,2.95
2018-07-26T17:28:44.881Z,5.55
2018-07-26T17:31:27.448Z,6.58
2018-07-26T17:34:10.648Z,7.05
2018-07-26T17:36:53.663Z,4.22
2018-07-26T17:39:36.908Z,7.00
2018-07-26T17:42:20.169Z,3.27
2018-07-26T17:45:02.575Z,2.90
2018-07-26T17:47:45.196Z,3.40
2018-07-26T17:50:28.230Z,3.12
2018-07-26T17:53:10.855Z,2.87
2018-07-26T17:55:54.095Z,3.70
2018-07-26T17:58:37.163Z,3.40
2018-07-26T18:01:20.063Z,3.50
2018-07-26T18:04:02.741Z,4.33
2018-07-26T18:06:45.372Z,3.13
2018-07-26T18:09:28.890Z,3.27
2018-07-26T18:12:11.864Z,3.13
2018-07-26T18:14:54.758Z,3.40
2018-07-26T18:17:37.560Z,3.40
2018-07-26T18:20:20.353Z,3.10
2018-07-26T18:23:03.963Z,3.13
2018-07-26T18:25:47.059Z,3.60
2018-07-26T18:28:29.509Z,3.43
2018-07-26T18:31:12.430Z,3.23
2018-07-26T18:33:55.531Z,2.70
2018-07-26T18:36:38.572Z,3.40
2018-07-26T18:39:22.029Z,3.13
2018-07-26T18:42:04.357Z,3.40
2018-07-26T18:44:47.163Z,2.93
2018-07-26T18:47:29.745Z,3.40
2018-07-26T18:50:12.583Z,3.53
2018-07-26T18:52:55.400Z,3.47
2018-07-26T18:55:38.234Z,3.00
2018-07-26T18:58:21.110Z,3.63
2018-07-26T19:01:03.674Z,3.77
2018-07-26T19:03:46.424Z,3.40
2018-07-26T19:06:29.605Z,3.30
2018-07-26T19:09:13.518Z,4.17
2018-07-26T19:11:56.756Z,4.53
2018-07-26T19:14:39.973Z,4.10
2018-07-26T19:17:22.520Z,3.60
2018-07-26T19:20:06.303Z,4.03
2018-07-26T19:22:49.175Z,3.90
2018-07-26T19:25:31.660Z,4.57
2018-07-26T19:28:15.691Z,4.27
2018-07-26T19:30:58.356Z,4.57
2018-07-26T19:33:41.319Z,4.20
2018-07-26T19:36:23.159Z,4.03
2018-07-26T19:39:09.584Z,4.30
2018-07-26T19:41:52.456Z,3.87
2018-07-26T19:44:34.961Z,4.30
2018-07-26T19:47:17.649Z,4.20
2018-07-26T19:50:00.174Z,4.47
2018-07-26T19:52:43.379Z,4.97
2018-07-26T19:55:26.072Z,4.90
2018-07-26T19:58:08.844Z,3.83
2018-07-26T20:00:51.894Z,4.20
2018-07-26T20:03:35.013Z,4.07
2018-07-26T20:06:17.332Z,4.70
2018-07-26T20:09:00.094Z,3.87
2018-07-26T20:11:42.717Z,4.40
2018-07-26T20:14:26.099Z,3.80
2018-07-26T20:17:08.517Z,4.07
2018-07-26T20:19:51.787Z,4.30
2018-07-26T20:22:34.362Z,4.10
2018-07-26T20:25:16.984Z,4.73
2018-07-26T20:27:59.950Z,4.30
2018-07-26T20:30:42.548Z,4.43
2018-07-26T20:33:25.574Z,4.40
2018-07-26T20:36:08.325Z,4.03
2018-07-26T20:38:50.894Z,4.70
2018-07-26T20:41:33.685Z,5.07
2018-07-26T20:44:16.422Z,4.80
2018-07-26T20:46:58.999Z,4.90
2018-07-26T20:49:41.460Z,4.40
2018-07-26T20:52:24.045Z,4.40
2018-07-26T20:55:07.183Z,4.50
2018-07-26T20:57:49.900Z,4.83
2018-07-26T21:00:32.942Z,4.90
2018-07-26T21:03:15.626Z,4.70
2018-07-26T21:05:58.965Z,5.50
2018-07-26T21:08:42.270Z,5.10
2018-07-26T21:11:24.913Z,5.23
2018-07-26T21:14:07.964Z,5.17
2018-07-26T21:16:52.487Z,5.20
2018-07-26T21:19:35.201Z,4.70
2018-07-26T21:22:18.807Z,4.90
2018-07-26T21:25:01.160Z,5.33
2018-07-26T21:27:43.985Z,4.93
2018-07-26T21:30:27.067Z,5.27
2018-07-26T21:33:09.708Z,5.60
2018-07-26T21:35:52.706Z,5.20
2018-07-26T21:38:35.661Z,5.63
2018-07-26T21:41:18.393Z,4.77
2018-07-26T21:44:00.491Z,5.50
2018-07-26T21:46:43.709Z,4.70
2018-07-26T21:49:26.327Z,5.00
2018-07-26T21:52:09.615Z,5.50
2018-07-26T21:54:52.275Z,6.00
2018-07-26T21:57:35.403Z,5.73
2018-07-26T22:00:17.681Z,5.90
2018-07-26T22:03:00.618Z,5.77
2018-07-26T22:05:44.450Z,5.20
2018-07-26T22:08:26.747Z,5.37
2018-07-26T22:11:09.833Z,4.93
2018-07-26T22:13:52.655Z,5.60
2018-07-26T22:16:35.204Z,6.67
2018-07-26T22:19:17.837Z,5.70
2018-07-26T22:22:00.335Z,5.23
2018-07-26T22:24:43.287Z,5.20
2018-07-26T22:27:26.108Z,6.33
2018-07-26T22:30:08.852Z,5.43
2018-07-26T22:32:51.579Z,6.50
2018-07-26T22:35:34.576Z,6.23
2018-07-26T22:38:18.036Z,6.20
2018-07-26T22:41:01.516Z,5.20
2018-07-26T22:43:43.955Z,6.20
2018-07-26T22:46:26.930Z,6.03
2018-07-26T22:49:09.744Z,6.30
2018-07-26T22:51:52.544Z,5.80
2018-07-26T22:54:35.648Z,6.03
2018-07-26T22:57:18.344Z,6.97
2018-07-26T23:00:01.354Z,7.23
2018-07-26T23:02:43.822Z,6.40
2018-07-26T23:05:26.835Z,6.80
2018-07-26T23:08:09.204Z,6.27
2018-07-26T23:10:51.720Z,5.73
2018-07-26T23:13:34.387Z,5.57
2018-07-26T23:16:17.364Z,6.27
2018-07-26T23:18:59.635Z,6.30
2018-07-26T23:21:42.595Z,5.93
2018-07-26T23:24:25.251Z,5.20
2018-07-26T23:27:08.077Z,6.00
2018-07-26T23:29:50.771Z,5.90
2018-07-26T23:32:33.545Z,5.93
2018-07-26T23:35:16.193Z,5.10
2018-07-26T23:37:58.905Z,6.33
2018-07-26T23:40:41.765Z,5.60
2018-07-26T23:43:24.544Z,6.03
2018-07-26T23:46:07.516Z,6.10
2018-07-26T23:48:49.977Z,5.77
2018-07-26T23:51:32.407Z,5.27
2018-07-26T23:54:15.148Z,6.60
2018-07-26T23:56:58.007Z,5.80
2018-07-26T23:59:40.751Z,6.77
